sensor_id;sensor_type;location;lat;lon;timestamp;P1;P2;P0
70241;PMS5003;57631;52.218;0.108;2023-01-05T00:01:28;15;8;
70241;PMS5003;57631;52.218;0.108;2023-01-05T00:03:54;36;15;
70241;PMS5003;57631;52.218;0.108;2023-01-05T00:06:20;16;9;
70241;PMS5003;57631;52.218;0.108;2023-01-05T00:08:45;10;8;
70241;PMS5003;57631;52.218;0.108;2023-01-05T00:11:11;10;7;
70241;PMS5003;57631;52.218;0.108;2023-01-05T00:13:36;18;12;
70241;PMS5003;57631;52.218;0.108;2023-01-05T00:16:01;12;7;
70241;PMS5003;57631;52.218;0.108;2023-01-05T00:18:27;15;10;
70241;PMS5003;57631;52.218;0.108;2023-01-05T00:20:53;18;8;
70241;PMS5003;57631;52.218;0.108;2023-01-05T00:23:18;13;6;
70241;PMS5003;57631;52.218;0.108;2023-01-05T00:25:43;13;7;
70241;PMS5003;57631;52.218;0.108;2023-01-05T00:28:09;18;8;
70241;PMS5003;57631;52.218;0.108;2023-01-05T00:30:36;12;7;
70241;PMS5003;57631;52.218;0.108;2023-01-05T00:32:59;25;9;
70241;PMS5003;57631;52.218;0.108;2023-01-05T00:35:25;21;10;
70241;PMS5003;57631;52.218;0.108;2023-01-05T00:37:50;17;9;
70241;PMS5003;57631;52.218;0.108;2023-01-05T00:40:17;15;10;
70241;PMS5003;57631;52.218;0.108;2023-01-05T00:42:41;20;11;
70241;PMS5003;57631;52.218;0.108;2023-01-05T00:45:08;26;14;
70241;PMS5003;57631;52.218;0.108;2023-01-05T00:47:32;19;12;
70241;PMS5003;57631;52.218;0.108;2023-01-05T00:49:57;14;10;
70241;PMS5003;57631;52.218;0.108;2023-01-05T00:52:22;20;8;
70241;PMS5003;57631;52.218;0.108;2023-01-05T00:54:48;20;8;
70241;PMS5003;57631;52.218;0.108;2023-01-05T00:57:13;18;10;
70241;PMS5003;57631;52.218;0.108;2023-01-05T00:59:38;9;8;
70241;PMS5003;57631;52.218;0.108;2023-01-05T01:02:04;20;7;
70241;PMS5003;57631;52.218;0.108;2023-01-05T01:04:29;15;8;
70241;PMS5003;57631;52.218;0.108;2023-01-05T01:06:54;17;9;
70241;PMS5003;57631;52.218;0.108;2023-01-05T01:09:20;13;9;
70241;PMS5003;57631;52.218;0.108;2023-01-05T01:11:46;16;10;
70241;PMS5003;57631;52.218;0.108;2023-01-05T01:14:11;13;8;
70241;PMS5003;57631;52.218;0.108;2023-01-05T01:16:36;26;11;
70241;PMS5003;57631;52.218;0.108;2023-01-05T01:19:02;20;10;
70241;PMS5003;57631;52.218;0.108;2023-01-05T01:21:28;26;11;
70241;PMS5003;57631;52.218;0.108;2023-01-05T01:23:53;18;10;
70241;PMS5003;57631;52.218;0.108;2023-01-05T01:26:18;23;12;
70241;PMS5003;57631;52.218;0.108;2023-01-05T01:28:45;10;6;
70241;PMS5003;57631;52.218;0.108;2023-01-05T01:31:09;20;8;
70241;PMS5003;57631;52.218;0.108;2023-01-05T01:33:37;21;9;
70241;PMS5003;57631;52.218;0.108;2023-01-05T01:36:02;13;8;
70241;PMS5003;57631;52.218;0.108;2023-01-05T01:38:26;13;10;
70241;PMS5003;57631;52.218;0.108;2023-01-05T01:40:51;20;8;
70241;PMS5003;57631;52.218;0.108;2023-01-05T01:43:17;18;9;
70241;PMS5003;57631;52.218;0.108;2023-01-05T01:45:41;23;16;
70241;PMS5003;57631;52.218;0.108;2023-01-05T01:48:07;21;11;
70241;PMS5003;57631;52.218;0.108;2023-01-05T01:50:33;30;16;
70241;PMS5003;57631;52.218;0.108;2023-01-05T01:52:58;10;8;
70241;PMS5003;57631;52.218;0.108;2023-01-05T01:55:22;13;8;
70241;PMS5003;57631;52.218;0.108;2023-01-05T01:57:47;15;6;
70241;PMS5003;57631;52.218;0.108;2023-01-05T02:00:13;19;11;
70241;PMS5003;57631;52.218;0.108;2023-01-05T02:02:38;22;12;
70241;PMS5003;57631;52.218;0.108;2023-01-05T02:05:05;14;7;
70241;PMS5003;57631;52.218;0.108;2023-01-05T02:07:31;17;11;
70241;PMS5003;57631;52.218;0.108;2023-01-05T02:09:55;22;11;
70241;PMS5003;57631;52.218;0.108;2023-01-05T02:12:25;24;13;
70241;PMS5003;57631;52.218;0.108;2023-01-05T02:14:48;17;10;
70241;PMS5003;57631;52.218;0.108;2023-01-05T02:17:14;21;10;
70241;PMS5003;57631;52.218;0.108;2023-01-05T02:22:05;22;11;
70241;PMS5003;57631;52.218;0.108;2023-01-05T02:24:32;15;7;
70241;PMS5003;57631;52.218;0.108;2023-01-05T02:26:58;18;13;
70241;PMS5003;57631;52.218;0.108;2023-01-05T02:31:44;17;10;
70241;PMS5003;57631;52.218;0.108;2023-01-05T02:34:12;24;10;
70241;PMS5003;57631;52.218;0.108;2023-01-05T02:36:35;15;9;
70241;PMS5003;57631;52.218;0.108;2023-01-05T02:39:00;13;10;
70241;PMS5003;57631;52.218;0.108;2023-01-05T02:41:25;18;9;
70241;PMS5003;57631;52.218;0.108;2023-01-05T02:43:50;27;12;
70241;PMS5003;57631;52.218;0.108;2023-01-05T02:46:16;14;8;
70241;PMS5003;57631;52.218;0.108;2023-01-05T02:48:41;21;12;
70241;PMS5003;57631;52.218;0.108;2023-01-05T02:51:07;16;9;
70241;PMS5003;57631;52.218;0.108;2023-01-05T02:53:32;17;8;
70241;PMS5003;57631;52.218;0.108;2023-01-05T02:55:59;11;10;
70241;PMS5003;57631;52.218;0.108;2023-01-05T02:58:24;21;9;
70241;PMS5003;57631;52.218;0.108;2023-01-05T03:00:49;15;5;
70241;PMS5003;57631;52.218;0.108;2023-01-05T03:03:15;19;7;
70241;PMS5003;57631;52.218;0.108;2023-01-05T03:05:39;14;6;
70241;PMS5003;57631;52.218;0.108;2023-01-05T03:08:04;14;7;
70241;PMS5003;57631;52.218;0.108;2023-01-05T03:10:30;15;8;
70241;PMS5003;57631;52.218;0.108;2023-01-05T03:12:56;16;6;
70241;PMS5003;57631;52.218;0.108;2023-01-05T03:15:22;19;7;
70241;PMS5003;57631;52.218;0.108;2023-01-05T03:17:47;17;7;
70241;PMS5003;57631;52.218;0.108;2023-01-05T03:20:12;16;8;
70241;PMS5003;57631;52.218;0.108;2023-01-05T03:22:37;13;7;
70241;PMS5003;57631;52.218;0.108;2023-01-05T03:25:02;18;9;
70241;PMS5003;57631;52.218;0.108;2023-01-05T03:27:27;12;6;
70241;PMS5003;57631;52.218;0.108;2023-01-05T03:29:53;15;5;
70241;PMS5003;57631;52.218;0.108;2023-01-05T03:32:20;14;11;
70241;PMS5003;57631;52.218;0.108;2023-01-05T03:34:45;10;7;
70241;PMS5003;57631;52.218;0.108;2023-01-05T03:37:10;15;10;
70241;PMS5003;57631;52.218;0.108;2023-01-05T03:39:34;19;7;
70241;PMS5003;57631;52.218;0.108;2023-01-05T03:41:59;8;6;
70241;PMS5003;57631;52.218;0.108;2023-01-05T03:44:25;15;8;
70241;PMS5003;57631;52.218;0.108;2023-01-05T03:46:50;14;8;
70241;PMS5003;57631;52.218;0.108;2023-01-05T03:49:15;9;6;
70241;PMS5003;57631;52.218;0.108;2023-01-05T03:51:41;11;6;
70241;PMS5003;57631;52.218;0.108;2023-01-05T03:54:06;13;6;
70241;PMS5003;57631;52.218;0.108;2023-01-05T03:56:32;10;7;
70241;PMS5003;57631;52.218;0.108;2023-01-05T03:58:57;20;10;
70241;PMS5003;57631;52.218;0.108;2023-01-05T04:01:22;12;7;
70241;PMS5003;57631;52.218;0.108;2023-01-05T04:03:48;24;9;
70241;PMS5003;57631;52.218;0.108;2023-01-05T04:06:13;13;8;
70241;PMS5003;57631;52.218;0.108;2023-01-05T04:08:39;14;8;
70241;PMS5003;57631;52.218;0.108;2023-01-05T04:13:30;22;13;
70241;PMS5003;57631;52.218;0.108;2023-01-05T04:15:56;15;7;
70241;PMS5003;57631;52.218;0.108;2023-01-05T04:18:21;12;8;
70241;PMS5003;57631;52.218;0.108;2023-01-05T04:20:47;11;7;
70241;PMS5003;57631;52.218;0.108;2023-01-05T04:23:13;17;10;
70241;PMS5003;57631;52.218;0.108;2023-01-05T04:25:38;14;11;
70241;PMS5003;57631;52.218;0.108;2023-01-05T04:28:04;12;7;
70241;PMS5003;57631;52.218;0.108;2023-01-05T04:30:29;15;7;
70241;PMS5003;57631;52.218;0.108;2023-01-05T04:32:55;18;8;
70241;PMS5003;57631;52.218;0.108;2023-01-05T04:35:21;23;12;
70241;PMS5003;57631;52.218;0.108;2023-01-05T04:37:46;19;8;
70241;PMS5003;57631;52.218;0.108;2023-01-05T04:40:11;19;6;
70241;PMS5003;57631;52.218;0.108;2023-01-05T04:42:37;19;10;
70241;PMS5003;57631;52.218;0.108;2023-01-05T04:45:02;25;12;
70241;PMS5003;57631;52.218;0.108;2023-01-05T04:47:28;25;11;
70241;PMS5003;57631;52.218;0.108;2023-01-05T04:49:53;11;7;
70241;PMS5003;57631;52.218;0.108;2023-01-05T04:52:19;13;7;
70241;PMS5003;57631;52.218;0.108;2023-01-05T04:54:44;19;9;
70241;PMS5003;57631;52.218;0.108;2023-01-05T04:57:09;18;7;
70241;PMS5003;57631;52.218;0.108;2023-01-05T04:59:35;20;17;
70241;PMS5003;57631;52.218;0.108;2023-01-05T05:02:00;21;12;
70241;PMS5003;57631;52.218;0.108;2023-01-05T05:04:25;23;8;
70241;PMS5003;57631;52.218;0.108;2023-01-05T05:06:51;18;11;
70241;PMS5003;57631;52.218;0.108;2023-01-05T05:09:17;18;10;
70241;PMS5003;57631;52.218;0.108;2023-01-05T05:11:42;27;12;
70241;PMS5003;57631;52.218;0.108;2023-01-05T05:14:07;23;12;
70241;PMS5003;57631;52.218;0.108;2023-01-05T05:16:33;22;10;
70241;PMS5003;57631;52.218;0.108;2023-01-05T05:18:58;18;9;
70241;PMS5003;57631;52.218;0.108;2023-01-05T05:21:23;19;9;
70241;PMS5003;57631;52.218;0.108;2023-01-05T05:23:49;23;11;
70241;PMS5003;57631;52.218;0.108;2023-01-05T05:26:14;16;9;
70241;PMS5003;57631;52.218;0.108;2023-01-05T05:28:40;21;12;
70241;PMS5003;57631;52.218;0.108;2023-01-05T05:31:06;20;9;
70241;PMS5003;57631;52.218;0.108;2023-01-05T05:33:31;25;16;
70241;PMS5003;57631;52.218;0.108;2023-01-05T05:35:57;19;6;
70241;PMS5003;57631;52.218;0.108;2023-01-05T05:38:22;11;8;
70241;PMS5003;57631;52.218;0.108;2023-01-05T05:40:47;21;12;
70241;PMS5003;57631;52.218;0.108;2023-01-05T05:43:12;18;9;
70241;PMS5003;57631;52.218;0.108;2023-01-05T05:45:38;24;11;
70241;PMS5003;57631;52.218;0.108;2023-01-05T05:48:03;24;12;
70241;PMS5003;57631;52.218;0.108;2023-01-05T05:50:29;13;9;
70241;PMS5003;57631;52.218;0.108;2023-01-05T05:52:55;22;13;
70241;PMS5003;57631;52.218;0.108;2023-01-05T05:55:20;25;11;
70241;PMS5003;57631;52.218;0.108;2023-01-05T05:57:46;19;8;
70241;PMS5003;57631;52.218;0.108;2023-01-05T06:00:11;18;10;
70241;PMS5003;57631;52.218;0.108;2023-01-05T06:02:36;23;10;
70241;PMS5003;57631;52.218;0.108;2023-01-05T06:05:02;28;12;
70241;PMS5003;57631;52.218;0.108;2023-01-05T06:07:27;25;8;
70241;PMS5003;57631;52.218;0.108;2023-01-05T06:09:52;21;10;
70241;PMS5003;57631;52.218;0.108;2023-01-05T06:12:18;25;20;
70241;PMS5003;57631;52.218;0.108;2023-01-05T06:14:42;19;11;
70241;PMS5003;57631;52.218;0.108;2023-01-05T06:17:08;23;9;
70241;PMS5003;57631;52.218;0.108;2023-01-05T06:19:33;23;10;
70241;PMS5003;57631;52.218;0.108;2023-01-05T06:21:58;18;11;
70241;PMS5003;57631;52.218;0.108;2023-01-05T06:24:24;24;12;
70241;PMS5003;57631;52.218;0.108;2023-01-05T06:26:49;22;13;
70241;PMS5003;57631;52.218;0.108;2023-01-05T06:29:15;22;10;
70241;PMS5003;57631;52.218;0.108;2023-01-05T06:31:40;15;10;
70241;PMS5003;57631;52.218;0.108;2023-01-05T06:34:06;35;14;
70241;PMS5003;57631;52.218;0.108;2023-01-05T06:36:32;24;16;
70241;PMS5003;57631;52.218;0.108;2023-01-05T06:38:57;21;12;
70241;PMS5003;57631;52.218;0.108;2023-01-05T06:41:23;20;11;
70241;PMS5003;57631;52.218;0.108;2023-01-05T06:43:48;23;14;
70241;PMS5003;57631;52.218;0.108;2023-01-05T06:46:13;16;12;
70241;PMS5003;57631;52.218;0.108;2023-01-05T06:48:39;21;9;
70241;PMS5003;57631;52.218;0.108;2023-01-05T06:51:04;18;12;
70241;PMS5003;57631;52.218;0.108;2023-01-05T06:53:29;19;9;
70241;PMS5003;57631;52.218;0.108;2023-01-05T06:55:54;24;15;
70241;PMS5003;57631;52.218;0.108;2023-01-05T06:58:20;25;16;
70241;PMS5003;57631;52.218;0.108;2023-01-05T07:00:45;30;20;
70241;PMS5003;57631;52.218;0.108;2023-01-05T07:03:11;18;9;
70241;PMS5003;57631;52.218;0.108;2023-01-05T07:05:36;21;9;
70241;PMS5003;57631;52.218;0.108;2023-01-05T07:08:02;24;12;
70241;PMS5003;57631;52.218;0.108;2023-01-05T07:10:27;14;8;
70241;PMS5003;57631;52.218;0.108;2023-01-05T07:12:52;23;8;
70241;PMS5003;57631;52.218;0.108;2023-01-05T07:15:18;17;10;
70241;PMS5003;57631;52.218;0.108;2023-01-05T07:17:43;18;12;
70241;PMS5003;57631;52.218;0.108;2023-01-05T07:20:09;27;11;
70241;PMS5003;57631;52.218;0.108;2023-01-05T07:22:34;20;10;
70241;PMS5003;57631;52.218;0.108;2023-01-05T07:24:59;20;9;
70241;PMS5003;57631;52.218;0.108;2023-01-05T07:27:24;17;9;
70241;PMS5003;57631;52.218;0.108;2023-01-05T07:29:50;28;13;
70241;PMS5003;57631;52.218;0.108;2023-01-05T07:32:15;25;11;
70241;PMS5003;57631;52.218;0.108;2023-01-05T07:34:41;22;13;
70241;PMS5003;57631;52.218;0.108;2023-01-05T07:37:06;23;12;
70241;PMS5003;57631;52.218;0.108;2023-01-05T07:39:32;21;12;
70241;PMS5003;57631;52.218;0.108;2023-01-05T07:41:57;25;13;
70241;PMS5003;57631;52.218;0.108;2023-01-05T07:44:22;17;9;
70241;PMS5003;57631;52.218;0.108;2023-01-05T07:46:48;25;12;
70241;PMS5003;57631;52.218;0.108;2023-01-05T07:49:13;19;11;
70241;PMS5003;57631;52.218;0.108;2023-01-05T07:51:39;26;9;
70241;PMS5003;57631;52.218;0.108;2023-01-05T07:54:04;23;10;
70241;PMS5003;57631;52.218;0.108;2023-01-05T07:56:29;16;8;
70241;PMS5003;57631;52.218;0.108;2023-01-05T07:58:55;19;13;
70241;PMS5003;57631;52.218;0.108;2023-01-05T08:01:20;18;12;
70241;PMS5003;57631;52.218;0.108;2023-01-05T08:03:46;14;7;
70241;PMS5003;57631;52.218;0.108;2023-01-05T08:06:13;27;13;
70241;PMS5003;57631;52.218;0.108;2023-01-05T08:08:37;21;12;
70241;PMS5003;57631;52.218;0.108;2023-01-05T08:11:02;30;11;
70241;PMS5003;57631;52.218;0.108;2023-01-05T08:13:28;24;14;
70241;PMS5003;57631;52.218;0.108;2023-01-05T08:15:54;24;12;
70241;PMS5003;57631;52.218;0.108;2023-01-05T08:18:20;22;10;
70241;PMS5003;57631;52.218;0.108;2023-01-05T08:20:48;28;18;
70241;PMS5003;57631;52.218;0.108;2023-01-05T08:23:10;15;10;
70241;PMS5003;57631;52.218;0.108;2023-01-05T08:25:36;34;15;
70241;PMS5003;57631;52.218;0.108;2023-01-05T08:28:01;19;10;
70241;PMS5003;57631;52.218;0.108;2023-01-05T08:30:26;19;12;
70241;PMS5003;57631;52.218;0.108;2023-01-05T08:32:52;20;10;
70241;PMS5003;57631;52.218;0.108;2023-01-05T08:35:17;17;9;
70241;PMS5003;57631;52.218;0.108;2023-01-05T08:37:43;26;17;
70241;PMS5003;57631;52.218;0.108;2023-01-05T08:40:09;19;11;
70241;PMS5003;57631;52.218;0.108;2023-01-05T08:42:34;19;9;
70241;PMS5003;57631;52.218;0.108;2023-01-05T08:44:59;22;10;
70241;PMS5003;57631;52.218;0.108;2023-01-05T08:47:24;15;8;
70241;PMS5003;57631;52.218;0.108;2023-01-05T08:49:50;21;9;
70241;PMS5003;57631;52.218;0.108;2023-01-05T08:52:15;13;6;
70241;PMS5003;57631;52.218;0.108;2023-01-05T08:54:40;21;11;
70241;PMS5003;57631;52.218;0.108;2023-01-05T08:57:05;14;8;
70241;PMS5003;57631;52.218;0.108;2023-01-05T08:59:30;11;8;
70241;PMS5003;57631;52.218;0.108;2023-01-05T09:01:56;16;8;
70241;PMS5003;57631;52.218;0.108;2023-01-05T09:04:22;12;7;
70241;PMS5003;57631;52.218;0.108;2023-01-05T09:06:47;20;7;
70241;PMS5003;57631;52.218;0.108;2023-01-05T09:09:12;15;7;
70241;PMS5003;57631;52.218;0.108;2023-01-05T09:11:38;17;8;
70241;PMS5003;57631;52.218;0.108;2023-01-05T09:14:03;13;8;
70241;PMS5003;57631;52.218;0.108;2023-01-05T09:16:29;14;9;
70241;PMS5003;57631;52.218;0.108;2023-01-05T09:18:55;15;6;
70241;PMS5003;57631;52.218;0.108;2023-01-05T09:21:19;11;7;
70241;PMS5003;57631;52.218;0.108;2023-01-05T09:23:45;16;9;
70241;PMS5003;57631;52.218;0.108;2023-01-05T09:26:11;23;8;
70241;PMS5003;57631;52.218;0.108;2023-01-05T09:28:35;12;7;
70241;PMS5003;57631;52.218;0.108;2023-01-05T09:31:05;10;7;
70241;PMS5003;57631;52.218;0.108;2023-01-05T09:33:25;16;7;
70241;PMS5003;57631;52.218;0.108;2023-01-05T09:35:52;15;9;
70241;PMS5003;57631;52.218;0.108;2023-01-05T09:38:16;19;5;
70241;PMS5003;57631;52.218;0.108;2023-01-05T09:40:41;21;9;
70241;PMS5003;57631;52.218;0.108;2023-01-05T09:43:07;11;7;
70241;PMS5003;57631;52.218;0.108;2023-01-05T09:45:32;17;7;
70241;PMS5003;57631;52.218;0.108;2023-01-05T09:47:58;10;6;
70241;PMS5003;57631;52.218;0.108;2023-01-05T09:50:23;16;8;
70241;PMS5003;57631;52.218;0.108;2023-01-05T09:52:48;13;7;
70241;PMS5003;57631;52.218;0.108;2023-01-05T09:55:14;13;7;
70241;PMS5003;57631;52.218;0.108;2023-01-05T09:57:39;10;7;
70241;PMS5003;57631;52.218;0.108;2023-01-05T10:00:05;13;7;
70241;PMS5003;57631;52.218;0.108;2023-01-05T10:02:31;9;6;
70241;PMS5003;57631;52.218;0.108;2023-01-05T10:04:56;16;12;
70241;PMS5003;57631;52.218;0.108;2023-01-05T10:07:26;10;8;
70241;PMS5003;57631;52.218;0.108;2023-01-05T10:09:47;12;6;
70241;PMS5003;57631;52.218;0.108;2023-01-05T10:12:13;14;8;
70241;PMS5003;57631;52.218;0.108;2023-01-05T10:14:38;13;7;
70241;PMS5003;57631;52.218;0.108;2023-01-05T10:17:03;19;8;
70241;PMS5003;57631;52.218;0.108;2023-01-05T10:19:28;14;7;
70241;PMS5003;57631;52.218;0.108;2023-01-05T10:21:56;20;7;
70241;PMS5003;57631;52.218;0.108;2023-01-05T10:24:21;9;4;
70241;PMS5003;57631;52.218;0.108;2023-01-05T10:26:46;13;8;
70241;PMS5003;57631;52.218;0.108;2023-01-05T10:29:10;11;6;
70241;PMS5003;57631;52.218;0.108;2023-01-05T10:31:40;8;5;
70241;PMS5003;57631;52.218;0.108;2023-01-05T10:34:02;11;8;
70241;PMS5003;57631;52.218;0.108;2023-01-05T10:36:30;17;7;
70241;PMS5003;57631;52.218;0.108;2023-01-05T10:38:54;11;6;
70241;PMS5003;57631;52.218;0.108;2023-01-05T10:41:18;8;3;
70241;PMS5003;57631;52.218;0.108;2023-01-05T10:43:46;18;9;
70241;PMS5003;57631;52.218;0.108;2023-01-05T10:46:08;12;8;
70241;PMS5003;57631;52.218;0.108;2023-01-05T10:48:33;14;6;
70241;PMS5003;57631;52.218;0.108;2023-01-05T10:50:58;13;6;
70241;PMS5003;57631;52.218;0.108;2023-01-05T10:53:24;9;5;
70241;PMS5003;57631;52.218;0.108;2023-01-05T10:55:53;11;5;
70241;PMS5003;57631;52.218;0.108;2023-01-05T11:00:40;13;6;
70241;PMS5003;57631;52.218;0.108;2023-01-05T11:03:08;11;4;
70241;PMS5003;57631;52.218;0.108;2023-01-05T11:05:31;6;4;
70241;PMS5003;57631;52.218;0.108;2023-01-05T11:07:57;5;4;
70241;PMS5003;57631;52.218;0.108;2023-01-05T11:10:22;14;6;
70241;PMS5003;57631;52.218;0.108;2023-01-05T11:12:49;11;8;
70241;PMS5003;57631;52.218;0.108;2023-01-05T11:15:12;7;4;
70241;PMS5003;57631;52.218;0.108;2023-01-05T11:17:37;9;5;
70241;PMS5003;57631;52.218;0.108;2023-01-05T11:20:03;9;4;
70241;PMS5003;57631;52.218;0.108;2023-01-05T11:22:30;15;6;
70241;PMS5003;57631;52.218;0.108;2023-01-05T11:24:56;8;4;
70241;PMS5003;57631;52.218;0.108;2023-01-05T11:27:21;9;5;
70241;PMS5003;57631;52.218;0.108;2023-01-05T11:29:45;9;5;
70241;PMS5003;57631;52.218;0.108;2023-01-05T11:32:10;4;4;
70241;PMS5003;57631;52.218;0.108;2023-01-05T11:34:37;8;4;
70241;PMS5003;57631;52.218;0.108;2023-01-05T11:37:02;5;1;
70241;PMS5003;57631;52.218;0.108;2023-01-05T11:39:29;6;1;
70241;PMS5003;57631;52.218;0.108;2023-01-05T11:41:52;6;3;
70241;PMS5003;57631;52.218;0.108;2023-01-05T11:44:18;9;3;
70241;PMS5003;57631;52.218;0.108;2023-01-05T11:46:42;2;2;
70241;PMS5003;57631;52.218;0.108;2023-01-05T11:49:08;2;1;
70241;PMS5003;57631;52.218;0.108;2023-01-05T11:51:34;5;4;
70241;PMS5003;57631;52.218;0.108;2023-01-05T11:53:59;4;3;
70241;PMS5003;57631;52.218;0.108;2023-01-05T11:56:25;4;3;
70241;PMS5003;57631;52.218;0.108;2023-01-05T11:58:50;3;1;
70241;PMS5003;57631;52.218;0.108;2023-01-05T12:06:07;8;3;
70241;PMS5003;57631;52.218;0.108;2023-01-05T12:08:32;3;3;
70241;PMS5003;57631;52.218;0.108;2023-01-05T12:10:59;4;0;
70241;PMS5003;57631;52.218;0.108;2023-01-05T12:15:50;3;1;
70241;PMS5003;57631;52.218;0.108;2023-01-05T12:18:16;5;3;
70241;PMS5003;57631;52.218;0.108;2023-01-05T12:20:42;4;2;
70241;PMS5003;57631;52.218;0.108;2023-01-05T12:23:07;1;0;
70241;PMS5003;57631;52.218;0.108;2023-01-05T12:25:32;3;0;
70241;PMS5003;57631;52.218;0.108;2023-01-05T12:28:01;3;1;
70241;PMS5003;57631;52.218;0.108;2023-01-05T12:30:22;2;1;
70241;PMS5003;57631;52.218;0.108;2023-01-05T12:32:48;4;2;
70241;PMS5003;57631;52.218;0.108;2023-01-05T12:37:38;1;1;
70241;PMS5003;57631;52.218;0.108;2023-01-05T12:42:31;2;1;
70241;PMS5003;57631;52.218;0.108;2023-01-05T12:44:56;0;0;
70241;PMS5003;57631;52.218;0.108;2023-01-05T12:47:22;1;1;
70241;PMS5003;57631;52.218;0.108;2023-01-05T12:49:43;2;1;
70241;PMS5003;57631;52.218;0.108;2023-01-05T12:52:09;1;1;
70241;PMS5003;57631;52.218;0.108;2023-01-05T12:54:36;3;2;
70241;PMS5003;57631;52.218;0.108;2023-01-05T12:57:00;1;1;
70241;PMS5003;57631;52.218;0.108;2023-01-05T12:59:26;4;1;
70241;PMS5003;57631;52.218;0.108;2023-01-05T13:01:51;4;3;
70241;PMS5003;57631;52.218;0.108;2023-01-05T13:04:22;3;2;
70241;PMS5003;57631;52.218;0.108;2023-01-05T13:06:41;4;3;
70241;PMS5003;57631;52.218;0.108;2023-01-05T13:09:09;5;2;
70241;PMS5003;57631;52.218;0.108;2023-01-05T13:11:32;5;2;
70241;PMS5003;57631;52.218;0.108;2023-01-05T13:13:57;2;1;
70241;PMS5003;57631;52.218;0.108;2023-01-05T13:16:22;3;0;
70241;PMS5003;57631;52.218;0.108;2023-01-05T13:18:48;7;4;
70241;PMS5003;57631;52.218;0.108;2023-01-05T13:21:12;0;0;
70241;PMS5003;57631;52.218;0.108;2023-01-05T13:23:39;2;0;
70241;PMS5003;57631;52.218;0.108;2023-01-05T13:26:04;0;0;
70241;PMS5003;57631;52.218;0.108;2023-01-05T13:28:28;4;1;
70241;PMS5003;57631;52.218;0.108;2023-01-05T13:33:25;3;2;
70241;PMS5003;57631;52.218;0.108;2023-01-05T13:35:47;2;0;
70241;PMS5003;57631;52.218;0.108;2023-01-05T13:38:18;1;0;
70241;PMS5003;57631;52.218;0.108;2023-01-05T13:40:40;0;0;
70241;PMS5003;57631;52.218;0.108;2023-01-05T13:43:06;2;1;
70241;PMS5003;57631;52.218;0.108;2023-01-05T13:45:30;2;0;
70241;PMS5003;57631;52.218;0.108;2023-01-05T13:47:57;4;1;
70241;PMS5003;57631;52.218;0.108;2023-01-05T13:50:20;2;1;
70241;PMS5003;57631;52.218;0.108;2023-01-05T13:52:48;1;0;
70241;PMS5003;57631;52.218;0.108;2023-01-05T13:55:08;3;2;
70241;PMS5003;57631;52.218;0.108;2023-01-05T13:57:35;2;1;
70241;PMS5003;57631;52.218;0.108;2023-01-05T13:59:59;0;0;
70241;PMS5003;57631;52.218;0.108;2023-01-05T14:02:25;6;1;
70241;PMS5003;57631;52.218;0.108;2023-01-05T14:04:49;1;1;
70241;PMS5003;57631;52.218;0.108;2023-01-05T14:07:15;2;1;
70241;PMS5003;57631;52.218;0.108;2023-01-05T14:09:41;5;3;
70241;PMS5003;57631;52.218;0.108;2023-01-05T14:14:30;3;2;
70241;PMS5003;57631;52.218;0.108;2023-01-05T14:16:56;2;0;
70241;PMS5003;57631;52.218;0.108;2023-01-05T14:19:23;1;1;
70241;PMS5003;57631;52.218;0.108;2023-01-05T14:29:03;0;0;
70241;PMS5003;57631;52.218;0.108;2023-01-05T14:33:57;3;2;
70241;PMS5003;57631;52.218;0.108;2023-01-05T14:36:22;4;2;
70241;PMS5003;57631;52.218;0.108;2023-01-05T14:38:46;4;3;
70241;PMS5003;57631;52.218;0.108;2023-01-05T14:41:12;5;3;
70241;PMS5003;57631;52.218;0.108;2023-01-05T14:43:35;3;3;
70241;PMS5003;57631;52.218;0.108;2023-01-05T14:46:02;2;2;
70241;PMS5003;57631;52.218;0.108;2023-01-05T14:48:26;4;2;
70241;PMS5003;57631;52.218;0.108;2023-01-05T14:58:11;1;1;
70241;PMS5003;57631;52.218;0.108;2023-01-05T15:00:35;0;0;
70241;PMS5003;57631;52.218;0.108;2023-01-05T15:03:00;1;0;
70241;PMS5003;57631;52.218;0.108;2023-01-05T15:05:23;1;1;
70241;PMS5003;57631;52.218;0.108;2023-01-05T15:07:53;3;2;
70241;PMS5003;57631;52.218;0.108;2023-01-05T15:12:45;0;0;
70241;PMS5003;57631;52.218;0.108;2023-01-05T15:20:02;2;2;
70241;PMS5003;57631;52.218;0.108;2023-01-05T15:22:26;1;1;
70241;PMS5003;57631;52.218;0.108;2023-01-05T15:27:17;2;2;
70241;PMS5003;57631;52.218;0.108;2023-01-05T15:29:42;3;2;
70241;PMS5003;57631;52.218;0.108;2023-01-05T15:32:05;3;1;
70241;PMS5003;57631;52.218;0.108;2023-01-05T15:34:29;3;3;
70241;PMS5003;57631;52.218;0.108;2023-01-05T15:36:55;3;3;
70241;PMS5003;57631;52.218;0.108;2023-01-05T15:39:23;3;2;
70241;PMS5003;57631;52.218;0.108;2023-01-05T15:41:44;3;1;
70241;PMS5003;57631;52.218;0.108;2023-01-05T15:44:12;5;3;
70241;PMS5003;57631;52.218;0.108;2023-01-05T15:46:35;5;2;
70241;PMS5003;57631;52.218;0.108;2023-01-05T15:49:01;3;1;
70241;PMS5003;57631;52.218;0.108;2023-01-05T15:51:26;5;2;
70241;PMS5003;57631;52.218;0.108;2023-01-05T15:53:52;1;1;
70241;PMS5003;57631;52.218;0.108;2023-01-05T15:58:43;2;2;
70241;PMS5003;57631;52.218;0.108;2023-01-05T16:01:09;2;1;
70241;PMS5003;57631;52.218;0.108;2023-01-05T16:03:34;2;2;
70241;PMS5003;57631;52.218;0.108;2023-01-05T16:05:59;2;2;
70241;PMS5003;57631;52.218;0.108;2023-01-05T16:08:23;4;2;
70241;PMS5003;57631;52.218;0.108;2023-01-05T16:10:49;3;2;
70241;PMS5003;57631;52.218;0.108;2023-01-05T16:13:15;2;2;
70241;PMS5003;57631;52.218;0.108;2023-01-05T16:15:40;2;2;
70241;PMS5003;57631;52.218;0.108;2023-01-05T16:18:06;1;1;
70241;PMS5003;57631;52.218;0.108;2023-01-05T16:20:31;1;1;
70241;PMS5003;57631;52.218;0.108;2023-01-05T16:22:57;5;2;
70241;PMS5003;57631;52.218;0.108;2023-01-05T16:25:22;3;3;
70241;PMS5003;57631;52.218;0.108;2023-01-05T16:27:48;3;3;
70241;PMS5003;57631;52.218;0.108;2023-01-05T16:30:14;2;2;
70241;PMS5003;57631;52.218;0.108;2023-01-05T16:32:38;5;2;
70241;PMS5003;57631;52.218;0.108;2023-01-05T16:37:29;4;2;
70241;PMS5003;57631;52.218;0.108;2023-01-05T16:39:59;3;3;
70241;PMS5003;57631;52.218;0.108;2023-01-05T16:42:20;3;2;
70241;PMS5003;57631;52.218;0.108;2023-01-05T16:47:32;2;2;
70241;PMS5003;57631;52.218;0.108;2023-01-05T16:49:37;8;3;
70241;PMS5003;57631;52.218;0.108;2023-01-05T16:52:03;5;2;
70241;PMS5003;57631;52.218;0.108;2023-01-05T16:54:28;2;2;
70241;PMS5003;57631;52.218;0.108;2023-01-05T16:56:54;4;3;
70241;PMS5003;57631;52.218;0.108;2023-01-05T17:01:43;5;2;
70241;PMS5003;57631;52.218;0.108;2023-01-05T17:04:09;9;3;
70241;PMS5003;57631;52.218;0.108;2023-01-05T17:06:34;3;3;
70241;PMS5003;57631;52.218;0.108;2023-01-05T17:09:00;5;2;
70241;PMS5003;57631;52.218;0.108;2023-01-05T17:11:26;6;5;
70241;PMS5003;57631;52.218;0.108;2023-01-05T17:13:51;8;3;
70241;PMS5003;57631;52.218;0.108;2023-01-05T17:16:16;8;5;
70241;PMS5003;57631;52.218;0.108;2023-01-05T17:18:41;7;4;
70241;PMS5003;57631;52.218;0.108;2023-01-05T17:21:07;6;5;
70241;PMS5003;57631;52.218;0.108;2023-01-05T17:23:38;5;4;
70241;PMS5003;57631;52.218;0.108;2023-01-05T17:25:58;10;3;